Time;durP1;ratioP1;P1;durP2;ratioP2;P2;SDS_P1;SDS_P2;PMS_P1;PMS_P2;Temp;Humidity;BMP_temperature;BMP_pressure;BME280_temperature;BME280_humidity;BME280_pressure;Samples;Min_cycle;Max_cycle;Signal;HPM_P1;HPM_P2
2022/05/28 00:00:40;;;;;;;12.98;2.17;;;9.70;99.90;;;;;;5053757;28;20104;-76
2022/05/28 00:03:06;;;;;;;7.80;2.25;;;9.70;99.90;;;;;;5053831;28;20145;-76
2022/05/28 00:05:32;;;;;;;11.20;1.90;;;9.60;99.90;;;;;;5053982;28;20037;-76
2022/05/28 00:07:58;;;;;;;9.27;1.80;;;9.60;99.90;;;;;;5054225;28;20412;-76
2022/05/28 00:10:24;;;;;;;8.48;2.20;;;9.60;99.90;;;;;;5053961;28;20045;-76
2022/05/28 00:12:50;;;;;;;13.15;2.75;;;9.70;99.90;;;;;;5053973;28;20091;-75
2022/05/28 00:15:16;;;;;;;16.95;2.92;;;9.70;99.90;;;;;;5053801;28;20045;-76
2022/05/28 00:17:41;;;;;;;10.00;2.00;;;9.80;99.90;;;;;;5053848;28;20045;-76
2022/05/28 00:20:08;;;;;;;11.38;2.08;;;9.90;99.90;;;;;;5054078;28;20044;-76
2022/05/28 00:22:41;;;;;;;12.10;3.15;;;10.00;99.90;;;;;;5053853;28;20037;-76
2022/05/28 00:25:10;;;;;;;7.47;1.27;;;10.00;99.90;;;;;;5053650;28;20059;-76
2022/05/28 00:27:35;;;;;;;13.73;1.42;;;9.90;99.90;;;;;;5053757;28;20048;-77
2022/05/28 00:30:01;;;;;;;11.95;1.75;;;10.00;99.90;;;;;;5053496;28;20124;-76
2022/05/28 00:32:27;;;;;;;9.88;2.08;;;10.00;99.90;;;;;;5053586;28;20068;-76
2022/05/28 00:34:52;;;;;;;9.77;2.63;;;10.10;99.90;;;;;;5053870;28;20048;-77
2022/05/28 00:37:18;;;;;;;9.65;1.38;;;10.10;99.90;;;;;;5053466;28;20051;-77
2022/05/28 00:39:43;;;;;;;12.73;3.05;;;10.00;99.90;;;;;;5052890;28;20130;-76
2022/05/28 00:42:09;;;;;;;13.77;1.70;;;10.00;99.90;;;;;;5053302;28;20080;-76
2022/05/28 00:44:35;;;;;;;13.60;1.92;;;9.90;99.90;;;;;;5053348;28;20077;-76
2022/05/28 00:47:00;;;;;;;12.25;1.67;;;9.90;99.90;;;;;;5053506;28;20115;-77
2022/05/28 00:49:29;;;;;;;10.88;1.77;;;9.70;99.90;;;;;;5053600;28;20041;-76
2022/05/28 00:51:59;;;;;;;9.50;2.17;;;9.60;99.90;;;;;;5053478;28;20077;-76
2022/05/28 00:54:25;;;;;;;18.13;2.78;;;9.50;99.90;;;;;;5053351;28;20033;-76
2022/05/28 00:56:52;;;;;;;14.02;1.90;;;9.40;99.90;;;;;;5053170;28;20124;-76
2022/05/28 00:59:18;;;;;;;11.85;1.75;;;9.30;99.90;;;;;;5053121;28;20531;-76
2022/05/28 01:01:43;;;;;;;9.43;2.08;;;9.30;99.90;;;;;;5051378;28;20045;-77
2022/05/28 01:04:28;;;;;;;9.48;2.08;;;9.20;99.90;;;;;;5053394;28;20558;-76
2022/05/28 01:07:18;;;;;;;11.80;1.92;;;9.20;99.90;;;;;;5053340;28;20094;-77
2022/05/28 01:10:06;;;;;;;12.52;2.55;;;9.20;99.90;;;;;;5053043;28;20091;-76
2022/05/28 01:13:04;;;;;;;12.68;2.33;;;9.00;99.90;;;;;;5053236;28;20045;-76
2022/05/28 01:15:33;;;;;;;10.32;1.65;;;9.00;99.90;;;;;;5052972;28;20048;-76
2022/05/28 01:18:27;;;;;;;10.18;1.58;;;9.00;99.90;;;;;;5052924;28;20044;-76
2022/05/28 01:20:58;;;;;;;16.48;3.53;;;8.90;99.90;;;;;;5053284;28;20405;-75
2022/05/28 01:23:43;;;;;;;18.17;3.08;;;8.90;99.90;;;;;;5052958;28;20045;-76
2022/05/28 01:26:18;;;;;;;14.45;2.38;;;8.90;99.90;;;;;;5053228;28;20052;-76
2022/05/28 01:28:48;;;;;;;6.53;2.28;;;9.00;99.90;;;;;;5052970;28;20045;-76
2022/05/28 01:31:15;;;;;;;13.57;2.80;;;9.00;99.90;;;;;;5053218;28;20048;-77
2022/05/28 01:33:42;;;;;;;14.02;2.75;;;8.90;99.90;;;;;;5052981;28;20098;-76
2022/05/28 01:36:11;;;;;;;14.95;2.15;;;9.00;99.90;;;;;;5052987;28;20037;-76
2022/05/28 01:38:39;;;;;;;9.15;1.48;;;9.00;99.90;;;;;;5052750;28;20081;-76
2022/05/28 01:41:07;;;;;;;16.05;2.13;;;9.00;99.90;;;;;;5052467;28;20045;-77
2022/05/28 01:43:37;;;;;;;9.25;1.88;;;9.00;99.90;;;;;;5051391;28;20037;-76
2022/05/28 01:46:04;;;;;;;11.80;1.50;;;8.90;99.90;;;;;;5052843;28;20041;-76
2022/05/28 01:48:30;;;;;;;11.93;2.95;;;8.80;99.90;;;;;;5052860;28;20053;-76
2022/05/28 01:50:58;;;;;;;12.35;1.92;;;8.80;99.90;;;;;;5054717;28;20091;-76
2022/05/28 01:56:11;;;;;;;9.37;1.73;;;8.90;99.90;;;;;;5056604;28;20053;-76
2022/05/28 02:01:12;;;;;;;14.40;1.77;;;8.90;99.90;;;;;;5121657;22;20578;-84
2022/05/28 02:03:43;;;;;;;9.13;1.70;;;9.50;99.90;;;;;;5059523;28;20052;-85
2022/05/28 02:06:09;;;;;;;8.98;1.48;;;9.30;99.90;;;;;;5012883;28;20211;-84
2022/05/28 02:08:39;;;;;;;12.38;1.95;;;8.70;99.90;;;;;;5049431;28;20049;-85
2022/05/28 02:11:15;;;;;;;15.43;2.42;;;9.30;99.90;;;;;;5064787;28;20041;-85
2022/05/28 02:13:44;;;;;;;;;;;8.70;99.90;;;;;;5033894;28;20125;-84
2022/05/28 02:16:16;;;;;;;9.93;1.83;;;8.80;99.90;;;;;;5064347;28;19920;-85
2022/05/28 02:18:49;;;;;;;6.68;2.08;;;9.20;99.90;;;;;;5047991;28;20135;-85
2022/05/28 02:21:21;;;;;;;9.82;1.63;;;9.40;99.90;;;;;;5064629;28;20049;-85
2022/05/28 02:23:59;;;;;;;12.60;2.13;;;8.90;99.90;;;;;;5079945;28;20093;-85
2022/05/28 02:26:35;;;;;;;12.00;2.38;;;8.50;99.90;;;;;;5063024;28;20049;-85
2022/05/28 02:29:01;;;;;;;9.85;2.42;;;8.50;99.90;;;;;;5047042;28;20111;-85
2022/05/28 02:31:31;;;;;;;17.05;2.40;;;9.30;99.90;;;;;;5062805;28;20052;-85
2022/05/28 02:33:58;;;;;;;14.30;3.20;;;8.10;99.90;;;;;;5046272;28;20045;-86
2022/05/28 02:36:24;;;;;;;12.13;2.03;;;8.50;99.90;;;;;;5046009;28;20053;-86
2022/05/28 02:38:51;;;;;;;7.50;2.20;;;8.00;99.90;;;;;;5063045;28;20049;-86
2022/05/28 02:41:17;;;;;;;14.70;2.83;;;9.10;99.90;;;;;;5047244;28;20053;-86
2022/05/28 02:43:43;;;;;;;15.50;2.45;;;9.20;99.90;;;;;;5062986;28;20044;-86
2022/05/28 02:46:10;;;;;;;10.63;2.75;;;8.90;99.90;;;;;;5047288;28;20393;-85
2022/05/28 02:48:38;;;;;;;15.48;2.40;;;9.20;99.90;;;;;;5046895;28;20052;-86
2022/05/28 02:51:09;;;;;;;9.57;3.22;;;8.30;99.90;;;;;;5046993;28;20060;-86
2022/05/28 02:53:35;;;;;;;18.33;2.88;;;9.50;99.90;;;;;;5064215;28;20051;-86
2022/05/28 02:56:01;;;;;;;14.05;2.13;;;8.70;99.90;;;;;;5080329;28;20048;-86
2022/05/28 02:58:27;;;;;;;15.43;2.75;;;9.20;99.90;;;;;;5065190;28;20056;-86
2022/05/28 03:00:53;;;;;;;11.15;1.83;;;9.10;99.90;;;;;;5062980;28;20057;-86
2022/05/28 03:03:19;;;;;;;14.20;2.95;;;9.10;99.90;;;;;;5046654;28;20364;-86
2022/05/28 03:05:59;;;;;;;17.55;2.90;;;9.00;99.90;;;;;;5047638;28;20131;-87
2022/05/28 03:08:47;;;;;;;8.70;2.17;;;8.90;99.90;;;;;;5046793;28;20485;-87
2022/05/28 03:11:28;;;;;;;16.65;3.47;;;9.10;99.90;;;;;;5047157;28;20049;-86
2022/05/28 03:14:17;;;;;;;16.33;2.97;;;9.30;99.90;;;;;;5047832;28;20096;-86
2022/05/28 03:16:43;;;;;;;16.80;2.57;;;8.70;99.90;;;;;;5049248;28;20067;-86
2022/05/28 03:19:29;;;;;;;18.67;3.17;;;9.40;99.90;;;;;;5050791;28;20049;-87
2022/05/28 03:22:04;;;;;;;19.05;3.15;;;8.90;99.90;;;;;;5048633;28;20111;-86
2022/05/28 03:24:30;;;;;;;16.10;4.00;;;8.50;99.90;;;;;;5061136;28;20053;-86
2022/05/28 03:26:57;;;;;;;14.10;3.22;;;8.60;99.90;;;;;;5059126;28;20055;-85
2022/05/28 03:29:24;;;;;;;26.42;3.67;;;8.90;99.90;;;;;;5042609;28;20109;-85
2022/05/28 03:31:51;;;;;;;23.58;4.05;;;8.20;99.90;;;;;;5042125;28;20049;-85
2022/05/28 03:34:17;;;;;;;16.58;4.00;;;8.40;99.90;;;;;;5060877;28;20063;-85
2022/05/28 03:36:43;;;;;;;15.85;3.03;;;8.40;99.90;;;;;;5059576;28;20096;-85
2022/05/28 03:39:08;;;;;;;15.80;3.05;;;8.20;99.90;;;;;;5043793;28;20080;-85
2022/05/28 03:41:34;;;;;;;17.33;2.95;;;8.30;99.90;;;;;;5060232;28;20071;-85
2022/05/28 03:44:00;;;;;;;13.88;3.30;;;9.30;99.90;;;;;;5061311;28;20072;-85
2022/05/28 03:46:29;;;;;;;23.63;3.83;;;8.80;99.90;;;;;;5060369;28;20064;-85
2022/05/28 03:49:05;;;;;;;14.65;3.60;;;8.80;99.90;;;;;;5060620;28;20105;-85
2022/05/28 03:51:31;;;;;;;24.00;4.18;;;8.60;99.90;;;;;;5043867;28;20053;-85
2022/05/28 03:53:57;;;;;;;20.00;3.83;;;9.20;99.90;;;;;;5061241;28;20455;-85
2022/05/28 03:56:27;;;;;;;17.42;3.40;;;9.20;99.90;;;;;;5044005;28;20132;-85
2022/05/28 03:58:53;;;;;;;15.95;3.30;;;9.20;99.90;;;;;;5045333;28;20117;-85
2022/05/28 04:01:19;;;;;;;15.48;3.30;;;8.90;99.90;;;;;;5044358;28;20115;-85
2022/05/28 04:03:45;;;;;;;24.85;4.38;;;9.00;99.90;;;;;;5060771;28;20060;-85
2022/05/28 04:06:12;;;;;;;17.17;2.78;;;9.20;99.90;;;;;;5043859;28;20051;-85
2022/05/28 04:08:39;;;;;;;19.52;3.05;;;8.80;99.90;;;;;;5060507;28;20045;-85
2022/05/28 04:11:06;;;;;;;20.98;4.47;;;8.40;99.90;;;;;;5043671;28;20055;-85
2022/05/28 04:13:32;;;;;;;18.55;3.80;;;8.80;99.90;;;;;;5043548;28;20132;-85
2022/05/28 04:15:57;;;;;;;13.55;2.92;;;8.90;99.90;;;;;;5044582;28;20084;-85
2022/05/28 04:18:23;;;;;;;19.02;3.03;;;8.60;99.90;;;;;;5061182;28;20041;-85
2022/05/28 04:20:49;;;;;;;13.82;2.60;;;8.50;99.90;;;;;;5044854;28;20102;-85
2022/05/28 04:23:16;;;;;;;22.95;4.80;;;9.00;99.90;;;;;;5045189;28;20079;-85
2022/05/28 04:25:41;;;;;;;15.38;2.83;;;8.50;99.90;;;;;;5045314;28;20044;-85
2022/05/28 04:28:08;;;;;;;20.33;3.22;;;7.50;99.90;;;;;;5061065;28;20405;-85
2022/05/28 04:30:34;;;;;;;24.58;4.68;;;8.20;99.90;;;;;;5060738;28;20055;-85
2022/05/28 04:33:00;;;;;;;16.60;3.05;;;8.60;99.90;;;;;;5045265;28;20132;-85
2022/05/28 04:35:26;;;;;;;14.15;2.92;;;8.10;99.90;;;;;;5060469;28;20045;-85
2022/05/28 04:37:52;;;;;;;18.63;4.00;;;9.10;99.90;;;;;;5043503;28;20044;-85
2022/05/28 04:40:18;;;;;;;26.13;4.47;;;8.50;99.90;;;;;;5060317;28;20148;-85
2022/05/28 04:42:43;;;;;;;14.70;3.33;;;9.10;99.90;;;;;;5043248;28;20040;-85
2022/05/28 04:45:09;;;;;;;21.15;2.97;;;8.70;99.90;;;;;;5059282;28;20420;-85
2022/05/28 04:47:35;;;;;;;14.48;3.15;;;8.80;99.90;;;;;;5042833;28;20053;-85
2022/05/28 04:50:01;;;;;;;23.67;5.05;;;8.80;99.90;;;;;;5042860;28;20049;-85
2022/05/28 04:52:27;;;;;;;17.73;3.28;;;9.20;99.90;;;;;;5058624;28;20044;-85
2022/05/28 04:54:53;;;;;;;18.30;3.17;;;10.80;99.90;;;;;;5061198;28;20049;-85
2022/05/28 04:57:19;;;;;;;14.05;3.05;;;11.10;99.90;;;;;;5059038;28;20049;-85
2022/05/28 04:59:45;;;;;;;19.73;4.50;;;12.20;99.90;;;;;;5042856;28;20049;-85
2022/05/28 05:02:11;;;;;;;21.52;3.13;;;11.70;99.90;;;;;;5043502;28;20053;-85
2022/05/28 05:04:37;;;;;;;22.73;3.72;;;10.60;99.90;;;;;;5044253;28;20076;-85
2022/05/28 05:07:03;;;;;;;16.42;3.88;;;11.10;99.90;;;;;;5045378;28;20373;-85
2022/05/28 05:09:29;;;;;;;18.52;3.20;;;10.50;99.90;;;;;;5043560;28;20049;-85
2022/05/28 05:11:55;;;;;;;14.35;3.10;;;10.70;99.90;;;;;;5061400;28;20037;-85
2022/05/28 05:14:20;;;;;;;12.40;2.50;;;10.70;99.90;;;;;;5062309;28;20424;-85
2022/05/28 05:16:46;;;;;;;16.98;3.10;;;10.30;99.90;;;;;;5045649;28;20049;-86
2022/05/28 05:19:12;;;;;;;23.92;3.05;;;10.80;99.90;;;;;;5046018;28;20124;-85
2022/05/28 05:21:38;;;;;;;19.85;4.32;;;10.70;99.90;;;;;;5061547;28;20041;-85
2022/05/28 05:24:04;;;;;;;15.68;2.50;;;11.30;99.90;;;;;;5048564;28;20040;-85
2022/05/28 05:26:30;;;;;;;11.82;2.88;;;10.00;99.90;;;;;;5037567;28;20096;-85
2022/05/28 05:28:56;;;;;;;15.15;3.20;;;10.70;99.90;;;;;;5052801;28;20052;-85
2022/05/28 05:31:21;;;;;;;15.00;3.80;;;11.90;99.90;;;;;;5049143;28;20470;-85
2022/05/28 05:33:47;;;;;;;18.77;3.00;;;11.70;99.90;;;;;;5069339;28;20048;-86
2022/05/28 05:36:13;;;;;;;19.33;3.10;;;12.50;99.90;;;;;;5047215;28;20071;-85
2022/05/28 05:38:39;;;;;;;15.40;4.25;;;12.40;99.90;;;;;;5045256;28;20057;-85
2022/05/28 05:41:05;;;;;;;16.40;3.00;;;11.80;99.90;;;;;;5044043;28;20127;-85
2022/05/28 05:43:31;;;;;;;15.48;3.30;;;11.80;99.90;;;;;;5044368;28;20072;-85
2022/05/28 05:45:59;;;;;;;16.38;2.90;;;12.20;99.90;;;;;;5044376;28;20049;-85
2022/05/28 05:48:26;;;;;;;13.73;3.08;;;11.70;99.90;;;;;;5044870;28;20043;-85
2022/05/28 05:50:53;;;;;;;15.80;2.90;;;12.70;99.90;;;;;;5045457;28;20048;-85
2022/05/28 05:53:19;;;;;;;11.52;2.35;;;12.20;99.90;;;;;;5061414;28;20041;-86
2022/05/28 05:55:46;;;;;;;17.92;3.58;;;12.30;99.90;;;;;;5045002;28;20057;-85
2022/05/28 05:58:12;;;;;;;11.85;2.45;;;13.00;99.90;;;;;;5043471;28;20417;-85
2022/05/28 06:00:39;;;;;;;11.00;2.33;;;12.70;99.90;;;;;;5046607;28;20112;-86
2022/05/28 06:03:05;;;;;;;12.13;2.45;;;12.90;99.90;;;;;;5048564;28;20041;-85
2022/05/28 06:05:31;;;;;;;11.88;2.35;;;13.50;99.90;;;;;;5045131;28;20059;-86
2022/05/28 06:07:57;;;;;;;11.13;2.45;;;14.10;99.90;;;;;;5046289;28;20112;-86
2022/05/28 06:10:23;;;;;;;13.65;2.25;;;13.70;99.90;;;;;;5044722;28;20265;-86
2022/05/28 06:12:49;;;;;;;10.57;3.60;;;14.00;99.90;;;;;;5029717;28;20064;-85
2022/05/28 06:15:15;;;;;;;18.38;2.53;;;14.50;99.90;;;;;;5045577;28;20497;-86
2022/05/28 06:17:41;;;;;;;11.70;2.83;;;14.70;99.90;;;;;;5065212;28;20052;-86
2022/05/28 06:20:11;;;;;;;14.60;3.50;;;14.40;99.90;;;;;;5053740;28;20033;-85
2022/05/28 06:22:37;;;;;;;18.17;3.78;;;13.40;99.90;;;;;;5055050;28;20079;-85
2022/05/28 06:25:04;;;;;;;17.42;3.75;;;13.50;99.90;;;;;;5071193;28;20101;-86
2022/05/28 06:27:32;;;;;;;16.02;2.65;;;12.80;99.90;;;;;;5049686;28;20099;-86
2022/05/28 06:29:57;;;;;;;17.00;3.47;;;12.80;99.90;;;;;;5048527;28;20107;-85
2022/05/28 06:32:23;;;;;;;16.63;4.05;;;12.80;99.90;;;;;;5064108;28;20045;-86
2022/05/28 06:34:49;;;;;;;17.73;3.33;;;13.00;99.90;;;;;;5048597;28;20045;-86
2022/05/28 06:37:15;;;;;;;17.65;2.72;;;13.70;99.90;;;;;;5049902;28;20045;-85
2022/05/28 06:39:41;;;;;;;14.02;2.65;;;14.00;99.90;;;;;;5048903;28;20076;-86
2022/05/28 06:42:08;;;;;;;16.95;4.13;;;13.60;99.90;;;;;;5047721;28;20041;-86
2022/05/28 06:44:34;;;;;;;13.10;3.30;;;12.50;99.90;;;;;;5047675;28;20041;-86
2022/05/28 06:47:00;;;;;;;13.68;2.88;;;13.10;99.90;;;;;;5046744;28;20037;-86
2022/05/28 06:49:26;;;;;;;17.02;2.45;;;12.40;99.90;;;;;;5048745;28;20053;-86
2022/05/28 06:51:52;;;;;;;11.45;2.63;;;13.20;99.90;;;;;;5049924;28;20074;-86
2022/05/28 06:54:18;;;;;;;14.52;3.42;;;14.50;99.90;;;;;;5065956;28;20060;-86
2022/05/28 06:56:44;;;;;;;13.57;3.03;;;15.20;99.90;;;;;;5049258;28;20129;-86
2022/05/28 06:59:10;;;;;;;11.23;2.20;;;15.30;99.90;;;;;;5048063;28;20041;-86
2022/05/28 07:01:36;;;;;;;16.65;3.63;;;14.60;99.90;;;;;;5048258;28;20057;-86
2022/05/28 07:04:02;;;;;;;13.88;3.05;;;14.70;99.90;;;;;;5067288;28;20064;-86
2022/05/28 07:06:31;;;;;;;6.25;2.22;;;13.60;99.90;;;;;;5050485;28;20064;-86
2022/05/28 07:08:57;;;;;;;10.77;1.73;;;14.50;99.90;;;;;;5048227;28;20039;-87
2022/05/28 07:11:24;;;;;;;11.45;2.25;;;14.20;99.90;;;;;;5066301;28;20059;-86
2022/05/28 07:13:49;;;;;;;8.48;1.67;;;12.90;99.90;;;;;;5064839;28;20140;-86
2022/05/28 07:16:15;;;;;;;7.40;1.45;;;13.00;99.90;;;;;;5049380;28;20041;-86
2022/05/28 07:18:44;;;;;;;10.57;1.70;;;13.10;99.90;;;;;;5049660;28;20410;-86
2022/05/28 07:21:11;;;;;;;10.75;2.42;;;12.20;99.90;;;;;;5066355;28;20055;-86
2022/05/28 07:23:37;;;;;;;13.52;3.47;;;13.90;99.90;;;;;;5065693;28;20029;-86
2022/05/28 07:26:04;;;;;;;10.80;2.03;;;14.20;99.90;;;;;;5048287;28;20091;-86
2022/05/28 07:28:33;;;;;;;10.45;2.47;;;13.40;99.90;;;;;;5067258;28;20048;-86
2022/05/28 07:31:04;;;;;;;17.75;3.33;;;14.50;99.90;;;;;;5066301;28;20485;-86
2022/05/28 07:33:34;;;;;;;16.00;2.33;;;14.70;99.90;;;;;;5048292;28;20053;-86
2022/05/28 07:36:03;;;;;;;16.83;2.88;;;13.70;99.90;;;;;;5050431;28;20052;-86
2022/05/28 07:38:34;;;;;;;12.82;2.97;;;13.80;99.90;;;;;;5065063;28;20084;-86
2022/05/28 07:41:09;;;;;;;10.65;2.20;;;13.70;99.90;;;;;;5069108;28;20113;-87
2022/05/28 07:43:35;;;;;;;9.18;1.77;;;14.30;99.90;;;;;;5055582;28;20029;-86
2022/05/28 07:46:02;;;;;;;21.67;3.95;;;14.40;99.90;;;;;;5074230;28;20037;-86
2022/05/28 07:48:31;;;;;;;13.55;2.30;;;14.20;99.90;;;;;;5056144;28;20132;-87
2022/05/28 07:50:57;;;;;;;15.40;3.03;;;14.20;99.90;;;;;;5057532;28;20049;-86
2022/05/28 07:53:23;;;;;;;13.82;3.63;;;16.70;99.90;;;;;;5055230;28;20079;-86
2022/05/28 07:55:48;;;;;;;12.18;2.45;;;16.50;83.10;;;;;;5073301;28;20120;-87
2022/05/28 07:58:16;;;;;;;15.25;2.83;;;16.10;76.80;;;;;;5070499;28;20194;-86
2022/05/28 08:00:46;;;;;;;15.25;3.17;;;15.70;71.60;;;;;;5055771;28;20149;-87
2022/05/28 08:03:13;;;;;;;15.10;3.10;;;17.20;70.70;;;;;;5052646;28;20053;-87
2022/05/28 08:05:44;;;;;;;15.50;3.30;;;17.90;60.80;;;;;;5046714;28;20064;-87
2022/05/28 08:08:14;;;;;;;13.27;3.00;;;15.90;69.50;;;;;;5045550;28;20116;-86
2022/05/28 08:10:40;;;;;;;14.23;3.05;;;15.30;69.70;;;;;;5043269;28;20045;-87
2022/05/28 08:13:14;;;;;;;15.70;3.67;;;13.80;72.40;;;;;;5064960;28;20048;-87
2022/05/28 08:15:43;;;;;;;16.95;3.08;;;13.60;91.50;;;;;;5031594;28;20049;-86
2022/05/28 08:18:12;;;;;;;8.20;1.90;;;15.00;71.80;;;;;;5047636;28;20049;-87
2022/05/28 08:23:28;;;;;;;14.50;2.75;;;16.90;48.70;;;;;;5056163;28;20112;-87
2022/05/28 08:25:57;;;;;;;11.15;2.60;;;17.00;47.70;;;;;;5052880;28;20659;-87
2022/05/28 08:28:26;;;;;;;17.95;3.67;;;16.70;45.60;;;;;;5052815;28;20057;-87
2022/05/28 08:31:02;;;;;;;11.35;2.53;;;16.80;51.50;;;;;;5051091;28;20037;-87
2022/05/28 08:33:27;;;;;;;15.15;3.03;;;16.60;32.10;;;;;;5048619;28;20547;-87
2022/05/28 08:35:55;;;;;;;11.88;2.17;;;16.80;34.50;;;;;;5048117;28;20045;-87
2022/05/28 08:38:25;;;;;;;10.50;3.03;;;16.40;39.60;;;;;;5046185;28;20053;-87
2022/05/28 08:41:05;;;;;;;15.50;2.58;;;15.80;34.00;;;;;;5065845;28;20206;-87
2022/05/28 08:43:34;;;;;;;17.17;3.38;;;15.90;34.70;;;;;;5064502;28;20098;-87
2022/05/28 08:46:00;;;;;;;14.52;4.18;;;14.90;39.40;;;;;;5059964;28;20131;-87
2022/05/28 08:48:49;;;;;;;12.38;2.55;;;13.90;38.90;;;;;;5060990;28;20059;-87
2022/05/28 08:51:28;;;;;;;13.18;2.92;;;15.10;49.90;;;;;;5062020;28;20097;-87
2022/05/28 08:54:40;;;;;;;13.50;2.53;;;14.00;54.00;;;;;;5080404;28;20044;-87
2022/05/28 08:57:15;;;;;;;13.30;3.03;;;15.80;56.20;;;;;;5047698;28;20052;-87
2022/05/28 08:59:50;;;;;;;9.35;2.45;;;16.40;27.00;;;;;;5064589;28;20041;-87
2022/05/28 09:02:39;;;;;;;14.55;2.70;;;16.20;11.70;;;;;;5047566;28;20107;-86
2022/05/28 09:05:20;;;;;;;15.15;2.58;;;15.60;23.60;;;;;;5044420;28;20461;-86
2022/05/28 09:07:46;;;;;;;15.25;2.47;;;15.40;25.90;;;;;;5079298;28;20045;-86
2022/05/28 09:10:13;;;;;;;12.65;2.03;;;16.00;41.70;;;;;;5044965;28;20052;-86
2022/05/28 09:12:58;;;;;;;17.20;4.13;;;14.40;32.60;;;;;;5043723;28;20060;-87
2022/05/28 09:15:24;;;;;;;21.63;4.47;;;16.20;42.20;;;;;;5046679;28;20071;-87
2022/05/28 09:17:56;;;;;;;15.77;2.78;;;15.30;39.80;;;;;;5047135;28;20049;-87
2022/05/28 09:20:39;;;;;;;10.00;3.08;;;15.80;45.00;;;;;;5047583;28;20079;-87
2022/05/28 09:23:08;;;;;;;16.33;2.58;;;15.10;43.60;;;;;;5066696;28;20132;-87
2022/05/28 09:25:40;;;;;;;18.27;3.25;;;16.50;36.60;;;;;;5062767;28;20072;-88
2022/05/28 09:28:47;;;;;;;16.25;3.40;;;16.90;36.30;;;;;;5064142;28;20052;-87
2022/05/28 09:31:40;;;;;;;14.40;2.92;;;18.20;16.70;;;;;;5034369;28;20048;-87
2022/05/28 09:34:40;;;;;;;11.32;2.35;;;17.60;16.20;;;;;;5062368;28;20052;-87
2022/05/28 09:37:33;;;;;;;16.23;3.08;;;16.00;29.20;;;;;;5036106;28;20104;-86
2022/05/28 09:40:05;;;;;;;9.20;2.22;;;15.60;44.00;;;;;;5063399;28;20053;-86
2022/05/28 09:42:49;;;;;;;8.23;1.77;;;15.90;43.10;;;;;;5049868;28;20049;-86
2022/05/28 09:46:00;;;;;;;16.00;4.15;;;15.70;30.20;;;;;;5049923;28;20045;-87
2022/05/28 09:48:28;;;;;;;12.35;2.45;;;16.20;27.90;;;;;;4973179;28;20042;-87
2022/05/28 09:50:55;;;;;;;16.27;3.40;;;16.70;31.30;;;;;;4986821;28;20058;-87
2022/05/28 09:56:29;;;;;;;12.38;2.70;;;16.10;39.80;;;;;;5063771;28;20053;-87
2022/05/28 09:58:54;;;;;;;13.95;2.72;;;15.70;37.60;;;;;;5064068;28;20041;-87
2022/05/28 10:01:26;;;;;;;11.80;2.03;;;16.60;27.60;;;;;;5047052;28;20057;-88
2022/05/28 10:06:54;;;;;;;14.88;2.45;;;16.70;15.20;;;;;;5062383;28;20057;-87
2022/05/28 10:09:23;;;;;;;16.88;3.00;;;15.30;16.20;;;;;;5046237;28;20052;-87
2022/05/28 10:11:57;;;;;;;11.65;3.28;;;16.60;24.10;;;;;;5048312;28;20045;-88
2022/05/28 10:14:24;;;;;;;13.10;2.47;;;15.70;16.20;;;;;;5052306;28;20056;-88
2022/05/28 10:16:55;;;;;;;10.68;2.25;;;15.40;30.70;;;;;;5069370;28;20049;-87
2022/05/28 10:19:41;;;;;;;12.80;2.13;;;15.10;31.10;;;;;;5070722;28;20044;-88
2022/05/28 10:22:16;;;;;;;11.00;1.90;;;15.30;31.00;;;;;;5069839;28;20044;-88
2022/05/28 10:24:50;;;;;;;16.38;3.15;;;15.70;27.00;;;;;;5051446;28;20051;-87
2022/05/28 10:27:40;;;;;;;7.72;1.75;;;16.50;22.00;;;;;;5050072;28;20067;-87
2022/05/28 10:30:20;;;;;;;11.77;1.65;;;15.20;26.80;;;;;;5048369;28;20063;-87
2022/05/28 10:32:49;;;;;;;11.90;2.70;;;15.10;31.20;;;;;;5064740;28;20073;-87
2022/05/28 10:35:25;;;;;;;14.27;2.83;;;15.10;28.50;;;;;;5064994;28;20052;-85
2022/05/28 10:37:51;;;;;;;10.25;2.25;;;15.30;30.00;;;;;;5046838;28;20049;-86
2022/05/28 10:40:23;;;;;;;11.43;2.38;;;16.10;30.50;;;;;;5047946;28;20045;-86
2022/05/28 10:42:57;;;;;;;12.18;2.47;;;16.90;25.20;;;;;;5049396;28;20094;-86
2022/05/28 10:45:23;;;;;;;10.73;1.92;;;17.20;17.70;;;;;;5063566;28;20044;-86
2022/05/28 10:48:02;;;;;;;9.70;2.00;;;17.40;14.30;;;;;;5063328;28;20049;-85
2022/05/28 10:50:27;;;;;;;20.15;2.33;;;16.00;12.30;;;;;;5063873;28;20052;-86
2022/05/28 10:52:56;;;;;;;8.52;2.58;;;15.40;8.70;;;;;;5062585;28;20128;-86
2022/05/28 10:55:36;;;;;;;5.88;1.77;;;16.50;11.20;;;;;;5056980;28;20045;-87
2022/05/28 10:58:18;;;;;;;14.57;3.53;;;16.00;10.40;;;;;;5040484;28;20550;-86
2022/05/28 11:01:03;;;;;;;7.63;1.63;;;16.90;2.00;;;;;;5039952;28;20057;-86
2022/05/28 11:04:00;;;;;;;7.93;1.70;;;16.20;1.40;;;;;;5039470;28;20489;-87
2022/05/28 11:06:45;;;;;;;;;;;16.70;6.00;;;;;;5040927;28;20053;-87
2022/05/28 11:09:18;;;;;;;7.55;2.42;;;17.10;1.00;;;;;;5056502;28;19920;-86
2022/05/28 11:12:18;;;;;;;8.40;1.25;;;17.20;1.00;;;;;;5039049;28;20473;-86
2022/05/28 11:14:49;;;;;;;7.28;1.65;;;17.40;1.00;;;;;;5039508;28;20079;-86
2022/05/28 11:17:45;;;;;;;5.28;1.33;;;17.30;1.00;;;;;;5056751;28;20052;-86
2022/05/28 11:20:21;;;;;;;8.18;1.70;;;18.40;1.00;;;;;;5055926;28;20078;-87
2022/05/28 11:23:08;;;;;;;4.85;1.50;;;19.00;1.00;;;;;;5039360;28;20056;-87
2022/05/28 11:26:12;;;;;;;10.77;1.70;;;18.60;1.00;;;;;;5040008;28;20579;-86
2022/05/28 11:28:43;;;;;;;6.18;1.35;;;18.10;1.00;;;;;;5038842;28;20049;-86
2022/05/28 11:31:41;;;;;;;15.05;2.85;;;18.10;1.00;;;;;;5039285;28;20053;-86
2022/05/28 11:34:31;;;;;;;16.83;2.00;;;17.30;1.00;;;;;;5039404;28;20558;-86
2022/05/28 11:37:14;;;;;;;15.48;2.15;;;17.80;1.00;;;;;;5035323;28;20129;-86
2022/05/28 11:40:18;;;;;;;8.20;1.80;;;17.80;1.00;;;;;;5052788;28;20058;-86
2022/05/28 11:43:07;;;;;;;9.63;1.77;;;16.40;1.00;;;;;;5021726;28;20080;-86
2022/05/28 11:45:49;;;;;;;5.32;1.23;;;18.30;1.00;;;;;;5036121;28;20049;-86
2022/05/28 11:51:27;;;;;;;9.25;1.80;;;18.80;1.00;;;;;;5035448;28;20050;-86
2022/05/28 11:51:28;;;;;;;8.48;2.58;;;20.80;1.00;;;;;;5036232;28;20054;-86
2022/05/28 11:54:06;;;;;;;8.65;1.58;;;20.70;1.00;;;;;;5035819;28;20041;-86
2022/05/28 11:56:32;;;;;;;10.13;2.03;;;19.00;1.00;;;;;;5052303;28;20053;-86
2022/05/28 11:59:06;;;;;;;10.85;2.30;;;18.30;1.00;;;;;;5035245;28;20049;-86
2022/05/28 12:01:46;;;;;;;8.50;1.92;;;17.20;1.00;;;;;;5051628;28;20050;-86
2022/05/28 12:04:12;;;;;;;11.52;2.50;;;16.20;8.90;;;;;;5051990;28;20041;-86
2022/05/28 12:06:46;;;;;;;7.38;1.55;;;15.00;70.80;;;;;;5034874;28;20057;-86
2022/05/28 12:09:18;;;;;;;12.25;2.17;;;13.70;99.90;;;;;;5034955;28;20045;-86
2022/05/28 12:11:59;;;;;;;11.18;2.10;;;14.00;99.90;;;;;;5035127;28;20065;-86
2022/05/28 12:14:31;;;;;;;8.82;1.85;;;14.30;99.90;;;;;;5051588;28;20088;-86
2022/05/28 12:17:17;;;;;;;10.77;2.10;;;14.50;99.90;;;;;;5035295;28;20136;-86
2022/05/28 12:19:47;;;;;;;9.52;2.10;;;13.90;99.90;;;;;;5035026;28;20490;-86
2022/05/28 12:22:36;;;;;;;13.52;2.67;;;14.50;99.90;;;;;;5035228;28;20046;-86
2022/05/28 12:25:11;;;;;;;9.70;2.28;;;14.30;99.90;;;;;;5051679;28;20437;-86
2022/05/28 12:27:44;;;;;;;12.63;2.40;;;14.00;99.90;;;;;;5038598;28;20049;-85
2022/05/28 12:30:46;;;;;;;11.90;2.28;;;14.30;99.90;;;;;;5057234;28;20041;-85
2022/05/28 12:33:22;;;;;;;12.77;2.25;;;13.80;99.90;;;;;;5035649;28;20081;-86
2022/05/28 12:36:08;;;;;;;14.52;3.38;;;14.50;99.80;;;;;;5035306;28;20143;-86
2022/05/28 12:38:43;;;;;;;18.02;3.08;;;16.10;92.70;;;;;;5035704;28;20052;-86
2022/05/28 12:41:29;;;;;;;12.48;2.22;;;16.30;52.60;;;;;;5034104;28;20053;-86
2022/05/28 12:44:21;;;;;;;7.68;1.90;;;16.30;52.00;;;;;;5034317;28;20092;-86
2022/05/28 12:46:59;;;;;;;12.55;2.42;;;16.50;42.50;;;;;;5050737;28;20054;-86
2022/05/28 12:49:56;;;;;;;13.48;2.28;;;16.30;28.50;;;;;;5034281;28;20045;-86
2022/05/28 12:52:37;;;;;;;11.15;2.05;;;15.90;18.80;;;;;;5033940;28;20046;-86
2022/05/28 12:55:29;;;;;;;13.38;2.33;;;15.60;21.80;;;;;;5034507;28;20077;-86
2022/05/28 12:58:20;;;;;;;13.88;3.45;;;15.70;21.80;;;;;;5034941;28;20041;-86
2022/05/28 13:00:55;;;;;;;14.60;2.60;;;15.70;27.80;;;;;;5033928;28;20490;-86
2022/05/28 13:03:26;;;;;;;14.63;2.92;;;16.10;31.40;;;;;;5033798;28;20038;-86
2022/05/28 13:06:12;;;;;;;13.50;2.53;;;16.70;19.80;;;;;;5033962;28;20053;-86
2022/05/28 13:08:55;;;;;;;12.10;2.40;;;17.70;11.40;;;;;;5033859;28;20057;-86
2022/05/28 13:11:30;;;;;;;9.32;1.95;;;16.50;9.60;;;;;;5033161;28;20052;-86
2022/05/28 13:14:25;;;;;;;11.75;1.92;;;17.60;12.90;;;;;;5049469;28;20138;-87
2022/05/28 13:17:26;;;;;;;10.93;1.95;;;18.50;1.00;;;;;;5035145;28;20045;-86
2022/05/28 13:20:04;;;;;;;8.13;1.48;;;19.90;1.00;;;;;;5023507;28;20486;-87
2022/05/28 13:22:50;;;;;;;6.20;1.40;;;21.60;1.00;;;;;;5034205;28;20392;-86